createdAt,value
2023-03-14T00:01:24.572Z,-23882.84
2023-03-14T00:08:15.312Z,-23882.90
2023-03-14T00:10:45.089Z,-23881.61
2023-03-14T00:13:14.306Z,-23881.11
2023-03-14T00:15:42.670Z,-23880.86
2023-03-14T00:18:11.200Z,-23880.51
2023-03-14T00:20:39.571Z,-23880.39
2023-03-14T00:23:08.716Z,-23880.20
2023-03-14T00:25:37.075Z,-23879.76
2023-03-14T00:28:05.389Z,-23879.48
2023-03-14T00:30:34.538Z,-23879.13
2023-03-14T00:33:02.683Z,-23879.07
2023-03-14T00:35:30.824Z,-23878.88
2023-03-14T00:38:00.126Z,-23878.54
2023-03-14T00:40:28.308Z,-23878.29
2023-03-14T00:42:57.126Z,-23878.13
2023-03-14T00:45:25.605Z,-23878.19
2023-03-14T00:47:54.854Z,-23877.85
2023-03-14T00:50:23.156Z,-23877.41
2023-03-14T00:52:51.356Z,-23877.03
2023-03-14T00:55:20.006Z,-23876.56
2023-03-14T00:57:48.412Z,-23876.31
2023-03-14T01:00:17.291Z,-23875.99
2023-03-14T01:02:46.049Z,-23875.46
2023-03-14T01:05:17.631Z,-23874.83
2023-03-14T01:07:47.299Z,-23874.21
2023-03-14T01:10:15.468Z,-23873.45
2023-03-14T01:12:55.272Z,-23872.82
2023-03-14T01:15:23.548Z,-23872.07
2023-03-14T01:17:51.909Z,-23871.38
2023-03-14T01:20:25.238Z,-23870.63
2023-03-14T01:22:56.711Z,-23869.84
2023-03-14T01:25:24.996Z,-23869.21
2023-03-14T01:27:54.505Z,-23868.80
2023-03-14T01:30:22.949Z,-23868.30
2023-03-14T01:32:51.658Z,-23867.73
2023-03-14T01:35:20.837Z,-23867.52
2023-03-14T01:37:49.069Z,-23867.08
2023-03-14T01:40:20.322Z,-23866.67
2023-03-14T01:42:56.203Z,-23866.42
2023-03-14T01:45:56.144Z,-23865.94
2023-03-14T01:48:24.988Z,-23865.29
2023-03-14T01:50:53.460Z,-23864.41
2023-03-14T01:53:22.540Z,-23863.68
2023-03-14T01:55:51.771Z,-23863.05
2023-03-14T01:58:21.222Z,-23862.58
2023-03-14T02:00:49.731Z,-23862.14
2023-03-14T02:03:19.903Z,-23861.27
2023-03-14T02:05:49.146Z,-23860.35
2023-03-14T02:08:21.451Z,-23860.07
2023-03-14T02:10:55.616Z,-23859.73
2023-03-14T02:13:36.956Z,-23859.22
2023-03-14T02:16:28.235Z,-23858.19
2023-03-14T02:19:21.975Z,-23857.28
2023-03-14T02:22:21.309Z,-23856.33
2023-03-14T02:25:26.018Z,-23855.52
2023-03-14T02:27:54.335Z,-23855.17
2023-03-14T02:30:25.934Z,-23854.70
2023-03-14T02:33:06.488Z,-23853.97
2023-03-14T02:35:43.948Z,-23853.85
2023-03-14T02:38:34.421Z,-23853.44
2023-03-14T02:41:03.826Z,-23852.88
2023-03-14T02:43:36.006Z,-23852.40
2023-03-14T02:46:05.928Z,-23851.78
2023-03-14T02:48:37.470Z,-23851.12
2023-03-14T02:51:06.472Z,-23850.49
2023-03-14T02:53:35.802Z,-23850.21
2023-03-14T02:56:08.560Z,-23849.55
2023-03-14T02:58:38.681Z,-23849.01
2023-03-14T03:01:14.183Z,-23848.32
2023-03-14T03:03:42.493Z,-23847.56
2023-03-14T03:06:10.932Z,-23847.19
2023-03-14T03:08:39.530Z,-23846.31
2023-03-14T03:11:08.050Z,-23845.30
2023-03-14T03:13:36.688Z,-23844.58
2023-03-14T03:16:06.265Z,-23843.95
2023-03-14T03:18:36.208Z,-23843.13
2023-03-14T03:21:05.728Z,-23842.29
2023-03-14T03:23:38.772Z,-23841.41
2023-03-14T03:26:07.529Z,-23840.59
2023-03-14T03:28:35.910Z,-23839.99
2023-03-14T03:31:09.515Z,-23838.99
2023-03-14T03:33:38.701Z,-23838.01
2023-03-14T03:36:07.611Z,-23837.47
2023-03-14T03:38:38.235Z,-23836.63
2023-03-14T03:41:08.789Z,-23835.62
2023-03-14T03:43:38.443Z,-23834.74
2023-03-14T03:46:08.102Z,-23833.70
2023-03-14T03:48:36.942Z,-23832.88
2023-03-14T03:51:06.712Z,-23831.91
2023-03-14T03:53:41.427Z,-23830.84
2023-03-14T03:56:11.783Z,-23830.09
2023-03-14T03:58:40.153Z,-23829.46
2023-03-14T04:01:09.245Z,-23828.86
2023-03-14T04:03:40.092Z,-23828.07
2023-03-14T04:06:13.282Z,-23827.60
2023-03-14T04:08:44.756Z,-23827.26
2023-03-14T04:11:51.220Z,-23826.54
2023-03-14T04:14:24.179Z,-23825.90
2023-03-14T04:17:08.964Z,-23825.43
2023-03-14T04:19:38.908Z,-23825.09
2023-03-14T04:22:07.559Z,-23824.52
2023-03-14T04:24:42.612Z,-23823.95
2023-03-14T04:27:10.788Z,-23823.77
2023-03-14T04:29:40.327Z,-23823.58
2023-03-14T04:32:08.618Z,-23823.52
2023-03-14T04:34:38.927Z,-23823.58
2023-03-14T04:37:07.398Z,-23823.52
2023-03-14T04:39:40.307Z,-23823.48
2023-03-14T04:42:28.700Z,-23823.55
2023-03-14T04:44:57.016Z,-23823.58
2023-03-14T04:47:27.402Z,-23823.73
2023-03-14T04:49:57.826Z,-23823.92
2023-03-14T04:52:27.919Z,-23823.77
2023-03-14T04:54:56.364Z,-23823.89
2023-03-14T04:57:26.607Z,-23824.24
2023-03-14T04:59:55.126Z,-23824.46
2023-03-14T05:02:42.026Z,-23824.93
2023-03-14T05:05:40.739Z,-23825.43
2023-03-14T05:08:27.631Z,-23826.06
2023-03-14T05:11:14.472Z,-23826.85
2023-03-14T05:13:58.542Z,-23827.63
2023-03-14T05:16:45.052Z,-23828.36
2023-03-14T05:19:29.080Z,-23829.27
2023-03-14T05:22:20.300Z,-23830.46
2023-03-14T05:25:08.028Z,-23831.53
2023-03-14T05:27:56.095Z,-23832.79
2023-03-14T05:30:41.067Z,-23834.17
2023-03-14T05:33:35.476Z,-23835.62
2023-03-14T05:36:30.132Z,-23838.04
2023-03-14T05:39:18.610Z,-23840.12
2023-03-14T05:42:25.606Z,-23842.88
2023-03-14T05:45:14.012Z,-23845.37
2023-03-14T05:48:15.523Z,-23848.44
2023-03-14T05:51:03.377Z,-23851.43
2023-03-14T05:53:50.062Z,-23853.91
2023-03-14T05:56:35.314Z,-23855.89
2023-03-14T05:59:11.455Z,-23857.59
2023-03-14T06:01:55.612Z,-23859.69
2023-03-14T06:04:29.747Z,-23862.46
2023-03-14T06:07:01.395Z,-23865.10
2023-03-14T06:09:29.794Z,-23867.89
2023-03-14T06:12:00.343Z,-23870.53
2023-03-14T06:14:29.906Z,-23872.95
2023-03-14T06:17:00.152Z,-23875.34
2023-03-14T06:19:29.568Z,-23877.53
2023-03-14T06:21:58.272Z,-23879.48
2023-03-14T06:24:34.039Z,-23881.11
2023-03-14T06:27:22.169Z,-23882.65
2023-03-14T06:29:53.111Z,-23884.03
2023-03-14T06:32:21.768Z,-23885.85
2023-03-14T06:34:51.992Z,-23887.76
2023-03-14T06:37:21.228Z,-23890.21
2023-03-14T06:39:49.826Z,-23892.00
2023-03-14T06:42:32.455Z,-23893.00
2023-03-14T06:45:01.049Z,-23894.86
2023-03-14T06:47:29.454Z,-23897.12
2023-03-14T06:49:58.146Z,-23899.53
2023-03-14T06:52:28.853Z,-23901.04
2023-03-14T06:54:57.375Z,-23902.70
2023-03-14T06:57:25.980Z,-23904.99
2023-03-14T06:59:58.678Z,-23907.47
2023-03-14T07:02:39.816Z,-23909.54
2023-03-14T07:05:13.659Z,-23911.76
2023-03-14T07:07:42.026Z,-23913.67
2023-03-14T07:10:10.923Z,-23916.12
2023-03-14T07:12:42.337Z,-23918.32
2023-03-14T07:15:18.579Z,-23919.04
2023-03-14T07:17:49.438Z,-23919.01
2023-03-14T07:20:20.146Z,-23919.66
2023-03-14T07:22:52.069Z,-23920.61
2023-03-14T07:25:24.025Z,-23921.21
2023-03-14T07:27:53.648Z,-23921.96
2023-03-14T07:30:22.855Z,-23922.37
2023-03-14T07:32:52.909Z,-23923.34
2023-03-14T07:35:24.322Z,-23924.87
2023-03-14T07:37:52.576Z,-23926.94
2023-03-14T07:40:23.933Z,-23929.95
2023-03-14T07:42:56.258Z,-23933.15
2023-03-14T07:45:43.130Z,-23936.15
2023-03-14T07:48:13.122Z,-23939.10
2023-03-14T07:50:41.462Z,-23942.07
2023-03-14T07:53:10.606Z,-23944.89
2023-03-14T07:55:38.935Z,-23947.99
2023-03-14T07:58:11.081Z,-23951.41
2023-03-14T08:00:41.029Z,-23954.67
2023-03-14T08:03:09.396Z,-23957.77
2023-03-14T08:05:38.117Z,-23960.80
2023-03-14T08:08:06.417Z,-23964.24
2023-03-14T08:10:40.791Z,-23967.37
2023-03-14T08:13:09.823Z,-23970.03
2023-03-14T08:15:38.194Z,-23973.16
2023-03-14T08:18:10.672Z,-23976.14
2023-03-14T08:20:39.624Z,-23978.98
2023-03-14T08:23:07.887Z,-23980.89
2023-03-14T08:25:36.127Z,-23982.83
2023-03-14T08:28:05.311Z,-23984.99
2023-03-14T08:30:34.575Z,-23987.30
2023-03-14T08:33:03.147Z,-23989.68
2023-03-14T08:35:31.410Z,-23991.96
2023-03-14T08:38:00.660Z,-23994.40
2023-03-14T08:40:29.222Z,-23996.00
2023-03-14T08:43:00.594Z,-23997.28
2023-03-14T08:45:29.452Z,-23998.78
2023-03-14T08:47:58.849Z,-23999.84
2023-03-14T08:50:27.009Z,-24000.50
2023-03-14T08:52:55.442Z,-24001.75
2023-03-14T08:55:23.700Z,-24003.94
2023-03-14T08:57:52.563Z,-24005.72
2023-03-14T09:00:28.310Z,-24006.41
2023-03-14T09:02:57.328Z,-24006.38
2023-03-14T09:05:25.681Z,-24006.41
2023-03-14T09:07:57.039Z,-24006.53
2023-03-14T09:10:25.498Z,-24007.10
2023-03-14T09:12:53.681Z,-24008.00
2023-03-14T09:15:21.975Z,-24008.35
2023-03-14T09:17:50.670Z,-24008.03
2023-03-14T09:20:22.685Z,-24007.22
2023-03-14T09:22:51.495Z,-24007.13
2023-03-14T09:25:20.044Z,-24007.78
2023-03-14T09:27:48.537Z,-24009.44
2023-03-14T09:30:18.522Z,-24011.44
2023-03-14T09:32:47.056Z,-24013.25
2023-03-14T09:35:18.262Z,-24014.13
2023-03-14T09:37:46.446Z,-24015.44
2023-03-14T09:40:18.053Z,-24016.66
2023-03-14T09:42:49.773Z,-24018.63
2023-03-14T09:45:26.098Z,-24021.31
2023-03-14T09:47:59.503Z,-24021.97
2023-03-14T09:50:39.033Z,-24021.94
2023-03-14T09:53:13.176Z,-24022.34
2023-03-14T09:55:43.272Z,-24022.37
2023-03-14T09:58:26.015Z,-24023.47
2023-03-14T10:00:57.073Z,-24025.87
2023-03-14T10:03:35.142Z,-24028.09
2023-03-14T10:06:03.439Z,-24029.71
2023-03-14T10:08:32.903Z,-24031.21
2023-03-14T10:11:02.047Z,-24032.90
2023-03-14T10:13:32.868Z,-24035.08
2023-03-14T10:16:02.081Z,-24037.33
2023-03-14T10:18:35.870Z,-24039.48
2023-03-14T10:21:23.693Z,-24041.29
2023-03-14T10:23:52.115Z,-24042.51
2023-03-14T10:26:30.446Z,-24044.10
2023-03-14T10:29:12.517Z,-24046.57
2023-03-14T10:32:04.662Z,-24048.81
2023-03-14T10:34:39.742Z,-24050.00
2023-03-14T10:37:22.419Z,-24051.06
2023-03-14T10:39:52.855Z,-24052.34
2023-03-14T10:42:35.069Z,-24053.50
2023-03-14T10:45:05.726Z,-24054.72
2023-03-14T10:47:36.440Z,-24055.53
2023-03-14T10:50:24.835Z,-24056.74
2023-03-14T10:53:02.874Z,-24058.65
2023-03-14T10:55:43.466Z,-24060.17
2023-03-14T10:58:25.571Z,-24061.80
2023-03-14T11:01:30.950Z,-24062.36
2023-03-14T11:04:03.837Z,-24061.80
2023-03-14T11:06:45.539Z,-24061.73
2023-03-14T11:09:37.105Z,-24062.52
2023-03-14T11:12:26.504Z,-24064.29
2023-03-14T11:14:57.340Z,-24066.79
2023-03-14T11:17:32.544Z,-24067.35
2023-03-14T11:20:22.956Z,-24066.26
2023-03-14T11:23:09.861Z,-24066.32
2023-03-14T11:26:19.847Z,-24066.97
2023-03-14T11:28:52.269Z,-24067.29
2023-03-14T11:31:24.386Z,-24067.54
2023-03-14T11:34:11.318Z,-24067.72
2023-03-14T11:36:43.036Z,-24067.88
2023-03-14T11:39:15.245Z,-24068.22
2023-03-14T11:41:52.324Z,-24068.34
2023-03-14T11:44:21.794Z,-24069.87
2023-03-14T11:47:01.118Z,-24072.02
2023-03-14T11:49:29.967Z,-24073.49
2023-03-14T11:52:19.003Z,-24074.08
2023-03-14T11:55:21.700Z,-24075.05
2023-03-14T11:57:49.854Z,-24075.92
2023-03-14T12:00:25.040Z,-24076.70
2023-03-14T12:03:08.334Z,-24077.88
2023-03-14T12:05:54.599Z,-24078.57
2023-03-14T12:08:43.391Z,-24078.47
2023-03-14T12:11:29.582Z,-24079.16
2023-03-14T12:13:57.825Z,-24080.88
2023-03-14T12:16:25.915Z,-24082.00
2023-03-14T12:18:54.650Z,-24082.31
2023-03-14T12:21:29.453Z,-24082.59
2023-03-14T12:23:58.569Z,-24082.56
2023-03-14T12:26:30.253Z,-24083.31
2023-03-14T12:29:00.507Z,-24084.37
2023-03-14T12:31:32.213Z,-24085.73
2023-03-14T12:34:24.218Z,-24087.48
2023-03-14T12:36:56.422Z,-24088.60
2023-03-14T12:39:33.872Z,-24089.16
2023-03-14T12:42:13.523Z,-24089.79
2023-03-14T12:44:49.047Z,-24090.10
2023-03-14T12:47:20.369Z,-24090.78
2023-03-14T12:49:54.413Z,-24091.22
2023-03-14T12:52:24.861Z,-24091.72
2023-03-14T12:55:10.845Z,-24092.09
2023-03-14T12:58:04.588Z,-24092.37
2023-03-14T13:00:35.755Z,-24092.81
2023-03-14T13:03:16.311Z,-24093.12
2023-03-14T13:06:01.769Z,-24093.74
2023-03-14T13:08:43.263Z,-24094.83
2023-03-14T13:11:21.276Z,-24095.95
2023-03-14T13:13:58.404Z,-24096.98
2023-03-14T13:16:26.734Z,-24097.95
2023-03-14T13:19:18.553Z,-24098.57
2023-03-14T13:21:46.928Z,-24098.75
2023-03-14T13:24:25.455Z,-24098.88
2023-03-14T13:26:55.347Z,-24099.69
2023-03-14T13:29:28.350Z,-24101.06
2023-03-14T13:31:58.839Z,-24102.28
2023-03-14T13:34:31.046Z,-24102.84
2023-03-14T13:37:00.134Z,-24103.37
2023-03-14T13:39:30.304Z,-24104.43
2023-03-14T13:42:01.870Z,-24105.46
2023-03-14T13:44:33.818Z,-24106.61
2023-03-14T13:47:03.289Z,-24107.32
2023-03-14T13:49:33.644Z,-24107.70
2023-03-14T13:52:02.158Z,-24108.01
2023-03-14T13:54:30.780Z,-24107.70
2023-03-14T13:57:06.353Z,-24106.48
2023-03-14T13:59:35.410Z,-24104.90
2023-03-14T14:02:18.456Z,-24103.62
2023-03-14T14:04:47.207Z,-24102.38
2023-03-14T14:07:19.537Z,-24100.84
2023-03-14T14:09:52.703Z,-24099.66
2023-03-14T14:12:30.753Z,-24099.00
2023-03-14T14:15:03.700Z,-24098.42
2023-03-14T14:17:36.267Z,-24097.70
2023-03-14T14:20:22.068Z,-24097.04
2023-03-14T14:22:51.205Z,-24096.17
2023-03-14T14:25:19.607Z,-24095.36
2023-03-14T14:27:49.710Z,-24094.46
2023-03-14T14:30:18.207Z,-24093.65
2023-03-14T14:32:47.978Z,-24092.21
2023-03-14T14:35:33.645Z,-24091.00
2023-03-14T14:38:02.951Z,-24089.72
2023-03-14T14:40:31.989Z,-24088.92
2023-03-14T14:43:04.078Z,-24088.23
2023-03-14T14:45:34.776Z,-24087.54
2023-03-14T14:48:02.914Z,-24087.01
2023-03-14T14:50:32.364Z,-24086.73
2023-03-14T14:53:03.115Z,-24086.51
2023-03-14T14:55:40.883Z,-24086.17
2023-03-14T14:58:25.218Z,-24084.99
2023-03-14T15:01:06.520Z,-24083.21
2023-03-14T15:03:38.864Z,-24081.68
2023-03-14T15:06:07.079Z,-24080.47
2023-03-14T15:08:35.201Z,-24079.35
2023-03-14T15:11:03.464Z,-24078.26
2023-03-14T15:13:31.984Z,-24077.29
2023-03-14T15:16:00.440Z,-24076.42
2023-03-14T15:18:31.066Z,-24075.58
2023-03-14T15:20:59.772Z,-24074.61
2023-03-14T15:23:31.949Z,-24073.83
2023-03-14T15:26:00.171Z,-24072.93
2023-03-14T15:28:29.537Z,-24071.77
2023-03-14T15:30:59.020Z,-24070.84
2023-03-14T15:33:27.556Z,-24069.90
2023-03-14T15:35:58.549Z,-24069.16
2023-03-14T15:38:26.741Z,-24068.56
2023-03-14T15:40:55.744Z,-24067.38
2023-03-14T15:43:25.675Z,-24066.60
2023-03-14T15:45:54.846Z,-24065.91
2023-03-14T15:48:23.527Z,-24065.41
2023-03-14T15:50:51.720Z,-24064.79
2023-03-14T15:53:20.534Z,-24064.23
2023-03-14T15:55:48.783Z,-24063.48
2023-03-14T15:58:21.501Z,-24062.52
2023-03-14T16:00:50.511Z,-24061.02
2023-03-14T16:03:19.302Z,-24059.64
2023-03-14T16:05:47.871Z,-24058.02
2023-03-14T16:08:16.076Z,-24057.27
2023-03-14T16:10:46.253Z,-24056.65
2023-03-14T16:13:14.826Z,-24055.93
2023-03-14T16:15:43.092Z,-24055.00
2023-03-14T16:18:21.301Z,-24054.03
2023-03-14T16:20:54.871Z,-24053.06
2023-03-14T16:23:23.221Z,-24052.31
2023-03-14T16:25:51.769Z,-24050.88
2023-03-14T16:28:20.072Z,-24050.03
2023-03-14T16:30:48.536Z,-24049.31
2023-03-14T16:33:17.347Z,-24048.63
2023-03-14T16:35:58.631Z,-24048.16
2023-03-14T16:38:31.748Z,-24046.79
2023-03-14T16:41:03.780Z,-24045.88
2023-03-14T16:43:34.107Z,-24045.44
2023-03-14T16:46:02.319Z,-24044.79
2023-03-14T16:48:39.494Z,-24044.04
2023-03-14T16:51:07.957Z,-24043.63
2023-03-14T16:53:36.164Z,-24042.89
2023-03-14T16:56:04.621Z,-24041.79
2023-03-14T16:58:33.081Z,-24040.73
2023-03-14T17:01:10.592Z,-24039.86
2023-03-14T17:03:44.158Z,-24039.30
2023-03-14T17:06:13.524Z,-24038.83
2023-03-14T17:08:44.303Z,-24038.77
2023-03-14T17:11:12.685Z,-24038.30
2023-03-14T17:13:40.934Z,-24037.89
2023-03-14T17:16:09.909Z,-24037.83
2023-03-14T17:18:38.444Z,-24037.42
2023-03-14T17:21:09.597Z,-24036.89
2023-03-14T17:23:41.240Z,-24036.36
2023-03-14T17:26:09.869Z,-24036.02
2023-03-14T17:28:38.733Z,-24035.52
2023-03-14T17:31:15.013Z,-24035.05
2023-03-14T17:33:44.527Z,-24034.52
2023-03-14T17:36:15.815Z,-24034.14
2023-03-14T17:38:44.257Z,-24033.15
2023-03-14T17:41:13.377Z,-24032.24
2023-03-14T17:43:42.227Z,-24031.37
2023-03-14T17:46:14.939Z,-24029.87
2023-03-14T17:48:45.707Z,-24028.18
2023-03-14T17:51:15.500Z,-24026.62
2023-03-14T17:53:45.520Z,-24025.21
2023-03-14T17:56:13.786Z,-24023.94
2023-03-14T17:58:44.398Z,-24022.65
2023-03-14T18:01:19.609Z,-24020.91
2023-03-14T18:03:49.785Z,-24019.19
2023-03-14T18:06:18.936Z,-24018.25
2023-03-14T18:08:47.532Z,-24017.06
2023-03-14T18:11:19.649Z,-24015.63
2023-03-14T18:13:49.248Z,-24014.10
2023-03-14T18:16:18.262Z,-24012.75
2023-03-14T18:18:50.656Z,-24011.35
2023-03-14T18:21:20.276Z,-24010.38
2023-03-14T18:23:52.634Z,-24009.63
2023-03-14T18:26:21.716Z,-24008.44
2023-03-14T18:28:50.198Z,-24007.69
2023-03-14T18:31:25.303Z,-24006.97
2023-03-14T18:33:57.966Z,-24006.79
2023-03-14T18:36:29.207Z,-24006.38
2023-03-14T18:38:57.503Z,-24005.69
2023-03-14T18:41:26.049Z,-24004.69
2023-03-14T18:43:55.088Z,-24003.88
2023-03-14T18:46:24.005Z,-24003.19
2023-03-14T18:48:58.572Z,-24002.10
2023-03-14T18:51:27.230Z,-24000.66
2023-03-14T18:54:02.786Z,-23999.53
2023-03-14T18:56:38.074Z,-23998.28
2023-03-14T18:59:06.819Z,-23997.59
2023-03-14T19:01:37.198Z,-23997.16
2023-03-14T19:04:05.986Z,-23996.47
2023-03-14T19:06:35.828Z,-23996.06
2023-03-14T19:09:09.358Z,-23995.47
2023-03-14T19:11:38.112Z,-23995.54
2023-03-14T19:14:16.266Z,-23995.63
2023-03-14T19:16:48.083Z,-23995.41
2023-03-14T19:19:16.328Z,-23995.91
2023-03-14T19:21:45.436Z,-23995.81
2023-03-14T19:24:18.201Z,-23995.25
2023-03-14T19:26:46.448Z,-23995.31
2023-03-14T19:29:15.730Z,-23995.28
2023-03-14T19:31:44.331Z,-23995.25
2023-03-14T19:34:13.538Z,-23994.71
2023-03-14T19:36:44.044Z,-23993.90
2023-03-14T19:39:13.417Z,-23992.90
2023-03-14T19:41:42.068Z,-23991.84
2023-03-14T19:44:13.303Z,-23990.83
2023-03-14T19:46:42.423Z,-23989.30
2023-03-14T19:49:11.707Z,-23987.96
2023-03-14T19:51:40.126Z,-23986.61
2023-03-14T19:54:08.512Z,-23984.99
2023-03-14T19:56:39.412Z,-23983.27
2023-03-14T19:59:08.259Z,-23981.08
2023-03-14T20:01:36.628Z,-23978.48
2023-03-14T20:04:06.784Z,-23975.95
2023-03-14T20:06:35.083Z,-23973.57
2023-03-14T20:09:06.095Z,-23971.44
2023-03-14T20:11:41.268Z,-23969.38
2023-03-14T20:14:11.337Z,-23967.47
2023-03-14T20:16:41.924Z,-23965.18
2023-03-14T20:19:13.679Z,-23963.49
2023-03-14T20:21:43.078Z,-23961.74
2023-03-14T20:24:13.417Z,-23959.89
2023-03-14T20:26:42.035Z,-23958.30
2023-03-14T20:29:10.700Z,-23956.73
2023-03-14T20:31:40.453Z,-23955.79
2023-03-14T20:34:09.764Z,-23954.92
2023-03-14T20:36:38.618Z,-23954.35
2023-03-14T20:39:07.735Z,-23953.47
2023-03-14T20:41:42.153Z,-23952.41
2023-03-14T20:44:13.922Z,-23951.32
2023-03-14T20:46:43.806Z,-23951.06
2023-03-14T20:49:12.393Z,-23951.10
2023-03-14T20:51:41.668Z,-23951.25
2023-03-14T20:54:20.485Z,-23951.06
2023-03-14T20:56:49.126Z,-23951.41
2023-03-14T20:59:17.463Z,-23951.35
2023-03-14T21:04:33.845Z,-23950.78
2023-03-14T21:07:04.198Z,-23950.38
2023-03-14T21:09:33.735Z,-23950.44
2023-03-14T21:12:01.965Z,-23949.94
2023-03-14T21:14:30.170Z,-23949.75
2023-03-14T21:17:00.256Z,-23949.56
2023-03-14T21:19:31.717Z,-23949.25
2023-03-14T21:22:04.095Z,-23949.06
2023-03-14T21:24:34.606Z,-23948.43
2023-03-14T21:27:05.150Z,-23947.49
2023-03-14T21:29:37.241Z,-23946.80
2023-03-14T21:32:05.731Z,-23946.02
2023-03-14T21:34:40.511Z,-23945.18
2023-03-14T21:37:09.401Z,-23944.36
2023-03-14T21:39:37.552Z,-23943.89
2023-03-14T21:42:06.048Z,-23943.61
2023-03-14T21:44:37.252Z,-23942.86
2023-03-14T21:47:09.002Z,-23942.17
2023-03-14T21:49:44.969Z,-23941.39
2023-03-14T21:52:15.724Z,-23940.66
2023-03-14T21:54:43.820Z,-23939.88
2023-03-14T21:57:12.156Z,-23939.19
2023-03-14T21:59:42.631Z,-23938.41
2023-03-14T22:02:15.899Z,-23937.66
2023-03-14T22:04:46.714Z,-23937.16
2023-03-14T22:07:18.354Z,-23936.41
2023-03-14T22:09:47.129Z,-23935.96
2023-03-14T22:12:21.339Z,-23935.62
2023-03-14T22:14:49.630Z,-23935.18
2023-03-14T22:17:19.760Z,-23934.59
2023-03-14T22:19:48.203Z,-23934.09
2023-03-14T22:22:16.506Z,-23933.11
2023-03-14T22:24:44.676Z,-23932.52
2023-03-14T22:27:13.337Z,-23931.83
2023-03-14T22:29:41.608Z,-23931.14
2023-03-14T22:32:10.541Z,-23930.52
2023-03-14T22:34:40.222Z,-23929.26
2023-03-14T22:37:08.358Z,-23928.26
2023-03-14T22:39:36.595Z,-23927.41
2023-03-14T22:42:04.942Z,-23926.82
2023-03-14T22:44:34.540Z,-23926.19
2023-03-14T22:47:02.767Z,-23925.50
2023-03-14T22:49:31.257Z,-23924.53
2023-03-14T22:51:59.964Z,-23923.40
2023-03-14T22:54:28.065Z,-23922.84
2023-03-14T22:56:57.109Z,-23921.89
2023-03-14T22:59:25.387Z,-23920.67
2023-03-14T23:01:53.455Z,-23920.17
2023-03-14T23:04:21.685Z,-23919.63
2023-03-14T23:06:50.022Z,-23918.95
2023-03-14T23:09:27.945Z,-23918.16
2023-03-14T23:11:56.400Z,-23917.06
2023-03-14T23:14:24.640Z,-23915.81
2023-03-14T23:16:55.943Z,-23914.87
2023-03-14T23:19:25.842Z,-23914.21
2023-03-14T23:21:58.244Z,-23913.33
2023-03-14T23:24:26.376Z,-23912.86
2023-03-14T23:26:54.542Z,-23911.92
2023-03-14T23:29:24.899Z,-23911.14
2023-03-14T23:31:53.073Z,-23910.48
2023-03-14T23:34:22.445Z,-23909.50
2023-03-14T23:36:51.879Z,-23908.25
2023-03-14T23:39:19.906Z,-23906.96
2023-03-14T23:41:47.909Z,-23905.55
2023-03-14T23:44:16.271Z,-23903.89
2023-03-14T23:46:44.577Z,-23902.70
2023-03-14T23:49:13.300Z,-23901.50
2023-03-14T23:51:41.480Z,-23900.06
2023-03-14T23:54:10.428Z,-23899.13
2023-03-14T23:56:41.144Z,-23898.34
2023-03-14T23:59:10.830Z,-23896.89
